sensor_id;sensor_type;location;lat;lon;timestamp;P1;durP1;ratioP1;P2;durP2;ratioP2
17382;SDS011;8809;51.892;8.384;2022-12-29T00:01:34;3.40;;;1.45;;
17382;SDS011;8809;51.892;8.384;2022-12-29T00:04:02;1.38;;;1.27;;
17382;SDS011;8809;51.892;8.384;2022-12-29T00:06:29;1.58;;;1.38;;
17382;SDS011;8809;51.892;8.384;2022-12-29T00:08:57;2.67;;;1.30;;
17382;SDS011;8809;51.892;8.384;2022-12-29T00:11:25;2.83;;;1.40;;
17382;SDS011;8809;51.892;8.384;2022-12-29T00:13:53;1.50;;;1.40;;
17382;SDS011;8809;51.892;8.384;2022-12-29T00:16:40;1.83;;;1.38;;
17382;SDS011;8809;51.892;8.384;2022-12-29T00:19:08;2.38;;;1.40;;
17382;SDS011;8809;51.892;8.384;2022-12-29T00:21:58;2.15;;;1.30;;
17382;SDS011;8809;51.892;8.384;2022-12-29T00:24:42;1.80;;;1.30;;
17382;SDS011;8809;51.892;8.384;2022-12-29T00:27:27;1.30;;;1.20;;
17382;SDS011;8809;51.892;8.384;2022-12-29T00:30:13;1.15;;;1.05;;
17382;SDS011;8809;51.892;8.384;2022-12-29T00:33:00;3.30;;;1.20;;
17382;SDS011;8809;51.892;8.384;2022-12-29T00:35:52;1.25;;;1.15;;
17382;SDS011;8809;51.892;8.384;2022-12-29T00:38:23;1.30;;;1.20;;
17382;SDS011;8809;51.892;8.384;2022-12-29T00:41:07;1.42;;;1.15;;
17382;SDS011;8809;51.892;8.384;2022-12-29T00:43:52;1.95;;;1.30;;
17382;SDS011;8809;51.892;8.384;2022-12-29T00:46:35;0.98;;;0.95;;
17382;SDS011;8809;51.892;8.384;2022-12-29T00:49:05;1.20;;;1.10;;
17382;SDS011;8809;51.892;8.384;2022-12-29T00:51:52;1.20;;;1.00;;
17382;SDS011;8809;51.892;8.384;2022-12-29T00:54:19;2.08;;;1.45;;
17382;SDS011;8809;51.892;8.384;2022-12-29T00:56:46;2.35;;;1.05;;
17382;SDS011;8809;51.892;8.384;2022-12-29T00:59:14;1.73;;;0.93;;
17382;SDS011;8809;51.892;8.384;2022-12-29T01:01:41;1.30;;;1.20;;
17382;SDS011;8809;51.892;8.384;2022-12-29T01:04:10;1.02;;;1.02;;
17382;SDS011;8809;51.892;8.384;2022-12-29T01:06:38;1.70;;;0.98;;
17382;SDS011;8809;51.892;8.384;2022-12-29T01:09:07;1.85;;;0.90;;
17382;SDS011;8809;51.892;8.384;2022-12-29T01:11:54;1.00;;;0.90;;
17382;SDS011;8809;51.892;8.384;2022-12-29T01:14:21;1.00;;;0.90;;
17382;SDS011;8809;51.892;8.384;2022-12-29T01:16:49;1.17;;;0.80;;
17382;SDS011;8809;51.892;8.384;2022-12-29T01:19:18;0.63;;;0.63;;
17382;SDS011;8809;51.892;8.384;2022-12-29T01:21:45;1.13;;;1.02;;
17382;SDS011;8809;51.892;8.384;2022-12-29T01:24:13;1.02;;;0.90;;
17382;SDS011;8809;51.892;8.384;2022-12-29T01:26:41;1.83;;;0.90;;
17382;SDS011;8809;51.892;8.384;2022-12-29T01:29:08;0.90;;;0.90;;
17382;SDS011;8809;51.892;8.384;2022-12-29T01:31:35;0.93;;;0.90;;
17382;SDS011;8809;51.892;8.384;2022-12-29T01:34:02;0.95;;;0.80;;
17382;SDS011;8809;51.892;8.384;2022-12-29T01:36:31;1.88;;;1.02;;
17382;SDS011;8809;51.892;8.384;2022-12-29T01:38:58;0.90;;;0.88;;
17382;SDS011;8809;51.892;8.384;2022-12-29T01:41:25;1.25;;;0.75;;
17382;SDS011;8809;51.892;8.384;2022-12-29T01:43:53;1.27;;;0.90;;
17382;SDS011;8809;51.892;8.384;2022-12-29T01:46:22;0.70;;;0.70;;
17382;SDS011;8809;51.892;8.384;2022-12-29T01:48:53;0.85;;;0.80;;
17382;SDS011;8809;51.892;8.384;2022-12-29T01:51:24;1.25;;;1.00;;
17382;SDS011;8809;51.892;8.384;2022-12-29T01:53:57;0.93;;;0.82;;
17382;SDS011;8809;51.892;8.384;2022-12-29T01:56:26;0.70;;;0.70;;
17382;SDS011;8809;51.892;8.384;2022-12-29T01:58:54;1.30;;;0.80;;
17382;SDS011;8809;51.892;8.384;2022-12-29T02:01:24;0.70;;;0.70;;
17382;SDS011;8809;51.892;8.384;2022-12-29T02:03:51;1.17;;;0.85;;
17382;SDS011;8809;51.892;8.384;2022-12-29T02:06:20;0.80;;;0.73;;
17382;SDS011;8809;51.892;8.384;2022-12-29T02:08:49;0.90;;;0.77;;
17382;SDS011;8809;51.892;8.384;2022-12-29T02:11:21;0.85;;;0.75;;
17382;SDS011;8809;51.892;8.384;2022-12-29T02:13:49;0.77;;;0.70;;
17382;SDS011;8809;51.892;8.384;2022-12-29T02:16:20;0.70;;;0.70;;
17382;SDS011;8809;51.892;8.384;2022-12-29T02:19:04;0.50;;;0.50;;
17382;SDS011;8809;51.892;8.384;2022-12-29T02:21:56;1.10;;;0.82;;
17382;SDS011;8809;51.892;8.384;2022-12-29T02:27:52;0.75;;;0.63;;
17382;SDS011;8809;51.892;8.384;2022-12-29T02:30:37;1.65;;;0.60;;
17382;SDS011;8809;51.892;8.384;2022-12-29T02:33:13;0.52;;;0.52;;
17382;SDS011;8809;51.892;8.384;2022-12-29T02:35:48;0.80;;;0.70;;
17382;SDS011;8809;51.892;8.384;2022-12-29T02:38:27;0.50;;;0.50;;
17382;SDS011;8809;51.892;8.384;2022-12-29T02:41:02;1.38;;;0.60;;
17382;SDS011;8809;51.892;8.384;2022-12-29T02:43:38;1.70;;;0.60;;
17382;SDS011;8809;51.892;8.384;2022-12-29T02:46:17;1.45;;;0.57;;
17382;SDS011;8809;51.892;8.384;2022-12-29T02:48:54;0.50;;;0.50;;
17382;SDS011;8809;51.892;8.384;2022-12-29T02:51:39;0.50;;;0.50;;
17382;SDS011;8809;51.892;8.384;2022-12-29T02:54:10;0.55;;;0.43;;
17382;SDS011;8809;51.892;8.384;2022-12-29T02:56:55;1.00;;;0.40;;
17382;SDS011;8809;51.892;8.384;2022-12-29T02:59:23;0.85;;;0.57;;
17382;SDS011;8809;51.892;8.384;2022-12-29T03:01:59;0.50;;;0.50;;
17382;SDS011;8809;51.892;8.384;2022-12-29T03:04:50;0.70;;;0.70;;
17382;SDS011;8809;51.892;8.384;2022-12-29T03:07:30;1.40;;;0.52;;
17382;SDS011;8809;51.892;8.384;2022-12-29T03:10:08;0.50;;;0.50;;
17382;SDS011;8809;51.892;8.384;2022-12-29T03:12:46;0.75;;;0.50;;
17382;SDS011;8809;51.892;8.384;2022-12-29T03:15:38;0.45;;;0.45;;
17382;SDS011;8809;51.892;8.384;2022-12-29T03:18:33;0.30;;;0.30;;
17382;SDS011;8809;51.892;8.384;2022-12-29T03:21:06;0.75;;;0.40;;
17382;SDS011;8809;51.892;8.384;2022-12-29T03:23:37;1.05;;;0.50;;
17382;SDS011;8809;51.892;8.384;2022-12-29T03:26:10;0.40;;;0.40;;
17382;SDS011;8809;51.892;8.384;2022-12-29T03:28:39;1.15;;;0.60;;
17382;SDS011;8809;51.892;8.384;2022-12-29T03:31:11;0.75;;;0.50;;
17382;SDS011;8809;51.892;8.384;2022-12-29T03:33:42;0.50;;;0.50;;
17382;SDS011;8809;51.892;8.384;2022-12-29T03:36:12;0.65;;;0.40;;
17382;SDS011;8809;51.892;8.384;2022-12-29T03:38:45;0.50;;;0.50;;
17382;SDS011;8809;51.892;8.384;2022-12-29T03:41:20;0.63;;;0.50;;
17382;SDS011;8809;51.892;8.384;2022-12-29T03:43:52;0.80;;;0.50;;
17382;SDS011;8809;51.892;8.384;2022-12-29T03:46:19;2.42;;;0.60;;
17382;SDS011;8809;51.892;8.384;2022-12-29T03:48:48;0.75;;;0.40;;
17382;SDS011;8809;51.892;8.384;2022-12-29T03:51:15;0.90;;;0.47;;
17382;SDS011;8809;51.892;8.384;2022-12-29T03:53:42;1.20;;;0.82;;
17382;SDS011;8809;51.892;8.384;2022-12-29T03:56:09;0.60;;;0.52;;
17382;SDS011;8809;51.892;8.384;2022-12-29T03:58:36;0.63;;;0.50;;
17382;SDS011;8809;51.892;8.384;2022-12-29T04:01:03;0.50;;;0.50;;
17382;SDS011;8809;51.892;8.384;2022-12-29T04:03:30;0.70;;;0.60;;
17382;SDS011;8809;51.892;8.384;2022-12-29T04:05:58;0.57;;;0.47;;
17382;SDS011;8809;51.892;8.384;2022-12-29T04:08:25;2.10;;;0.50;;
17382;SDS011;8809;51.892;8.384;2022-12-29T04:10:52;0.82;;;0.50;;
17382;SDS011;8809;51.892;8.384;2022-12-29T04:13:19;0.50;;;0.50;;
17382;SDS011;8809;51.892;8.384;2022-12-29T04:15:47;0.60;;;0.60;;
17382;SDS011;8809;51.892;8.384;2022-12-29T04:18:14;2.67;;;0.70;;
17382;SDS011;8809;51.892;8.384;2022-12-29T04:20:41;0.73;;;0.50;;
17382;SDS011;8809;51.892;8.384;2022-12-29T04:23:29;0.40;;;0.30;;
17382;SDS011;8809;51.892;8.384;2022-12-29T04:25:57;1.52;;;0.50;;
17382;SDS011;8809;51.892;8.384;2022-12-29T04:28:24;1.08;;;0.50;;
17382;SDS011;8809;51.892;8.384;2022-12-29T04:30:51;1.02;;;0.50;;
17382;SDS011;8809;51.892;8.384;2022-12-29T04:33:18;1.80;;;0.55;;
17382;SDS011;8809;51.892;8.384;2022-12-29T04:35:46;1.05;;;0.50;;
17382;SDS011;8809;51.892;8.384;2022-12-29T04:38:13;0.55;;;0.55;;
17382;SDS011;8809;51.892;8.384;2022-12-29T04:40:42;0.57;;;0.45;;
17382;SDS011;8809;51.892;8.384;2022-12-29T04:43:09;1.25;;;0.50;;
17382;SDS011;8809;51.892;8.384;2022-12-29T04:45:36;1.45;;;0.57;;
17382;SDS011;8809;51.892;8.384;2022-12-29T04:48:04;1.02;;;0.63;;
17382;SDS011;8809;51.892;8.384;2022-12-29T04:50:31;0.93;;;0.50;;
17382;SDS011;8809;51.892;8.384;2022-12-29T04:52:59;0.70;;;0.50;;
17382;SDS011;8809;51.892;8.384;2022-12-29T04:55:26;1.65;;;0.50;;
17382;SDS011;8809;51.892;8.384;2022-12-29T04:57:54;0.70;;;0.50;;
17382;SDS011;8809;51.892;8.384;2022-12-29T05:00:21;2.13;;;0.68;;
17382;SDS011;8809;51.892;8.384;2022-12-29T05:02:48;0.43;;;0.40;;
17382;SDS011;8809;51.892;8.384;2022-12-29T05:05:15;0.75;;;0.50;;
17382;SDS011;8809;51.892;8.384;2022-12-29T05:07:42;0.65;;;0.50;;
17382;SDS011;8809;51.892;8.384;2022-12-29T05:10:10;0.60;;;0.50;;
17382;SDS011;8809;51.892;8.384;2022-12-29T05:12:37;1.40;;;0.50;;
17382;SDS011;8809;51.892;8.384;2022-12-29T05:15:07;1.70;;;0.63;;
17382;SDS011;8809;51.892;8.384;2022-12-29T05:21:16;1.38;;;0.43;;
17382;SDS011;8809;51.892;8.384;2022-12-29T05:23:43;1.58;;;0.50;;
17382;SDS011;8809;51.892;8.384;2022-12-29T05:26:10;0.95;;;0.50;;
17382;SDS011;8809;51.892;8.384;2022-12-29T05:28:37;0.50;;;0.50;;
17382;SDS011;8809;51.892;8.384;2022-12-29T05:31:05;1.20;;;0.43;;
17382;SDS011;8809;51.892;8.384;2022-12-29T05:33:32;0.55;;;0.45;;
17382;SDS011;8809;51.892;8.384;2022-12-29T05:36:03;0.60;;;0.60;;
17382;SDS011;8809;51.892;8.384;2022-12-29T05:38:30;0.75;;;0.52;;
17382;SDS011;8809;51.892;8.384;2022-12-29T05:40:57;0.43;;;0.43;;
17382;SDS011;8809;51.892;8.384;2022-12-29T05:43:24;1.50;;;0.57;;
17382;SDS011;8809;51.892;8.384;2022-12-29T05:45:51;0.40;;;0.40;;
17382;SDS011;8809;51.892;8.384;2022-12-29T05:48:20;0.50;;;0.50;;
17382;SDS011;8809;51.892;8.384;2022-12-29T05:50:47;0.57;;;0.57;;
17382;SDS011;8809;51.892;8.384;2022-12-29T05:56:36;2.15;;;0.60;;
17382;SDS011;8809;51.892;8.384;2022-12-29T05:59:04;0.70;;;0.70;;
17382;SDS011;8809;51.892;8.384;2022-12-29T06:01:31;0.80;;;0.50;;
17382;SDS011;8809;51.892;8.384;2022-12-29T06:04:00;1.45;;;0.60;;
17382;SDS011;8809;51.892;8.384;2022-12-29T06:06:27;1.55;;;0.50;;
17382;SDS011;8809;51.892;8.384;2022-12-29T06:08:55;0.63;;;0.60;;
17382;SDS011;8809;51.892;8.384;2022-12-29T06:11:22;0.65;;;0.55;;
17382;SDS011;8809;51.892;8.384;2022-12-29T06:13:49;0.73;;;0.60;;
17382;SDS011;8809;51.892;8.384;2022-12-29T06:16:16;0.70;;;0.52;;
17382;SDS011;8809;51.892;8.384;2022-12-29T06:18:43;1.10;;;0.73;;
17382;SDS011;8809;51.892;8.384;2022-12-29T06:21:12;0.73;;;0.60;;
17382;SDS011;8809;51.892;8.384;2022-12-29T06:23:39;1.38;;;0.60;;
17382;SDS011;8809;51.892;8.384;2022-12-29T06:26:08;1.88;;;0.82;;
17382;SDS011;8809;51.892;8.384;2022-12-29T06:28:36;0.57;;;0.57;;
17382;SDS011;8809;51.892;8.384;2022-12-29T06:31:03;3.80;;;0.60;;
17382;SDS011;8809;51.892;8.384;2022-12-29T06:33:30;0.80;;;0.75;;
17382;SDS011;8809;51.892;8.384;2022-12-29T06:35:57;0.85;;;0.50;;
17382;SDS011;8809;51.892;8.384;2022-12-29T06:38:25;1.52;;;0.75;;
17382;SDS011;8809;51.892;8.384;2022-12-29T06:40:52;1.45;;;0.60;;
17382;SDS011;8809;51.892;8.384;2022-12-29T06:43:19;0.88;;;0.70;;
17382;SDS011;8809;51.892;8.384;2022-12-29T06:45:48;2.53;;;0.90;;
17382;SDS011;8809;51.892;8.384;2022-12-29T06:48:15;0.77;;;0.75;;
17382;SDS011;8809;51.892;8.384;2022-12-29T06:50:43;1.60;;;0.90;;
17382;SDS011;8809;51.892;8.384;2022-12-29T06:53:13;1.40;;;0.95;;
17382;SDS011;8809;51.892;8.384;2022-12-29T06:55:42;1.77;;;0.82;;
17382;SDS011;8809;51.892;8.384;2022-12-29T06:58:10;0.80;;;0.70;;
17382;SDS011;8809;51.892;8.384;2022-12-29T07:00:37;1.63;;;0.55;;
17382;SDS011;8809;51.892;8.384;2022-12-29T07:03:04;2.00;;;0.70;;
17382;SDS011;8809;51.892;8.384;2022-12-29T07:05:31;1.85;;;0.60;;
17382;SDS011;8809;51.892;8.384;2022-12-29T07:07:59;0.95;;;0.70;;
17382;SDS011;8809;51.892;8.384;2022-12-29T07:10:26;2.58;;;0.70;;
17382;SDS011;8809;51.892;8.384;2022-12-29T07:12:55;1.33;;;0.68;;
17382;SDS011;8809;51.892;8.384;2022-12-29T07:15:24;1.85;;;0.77;;
17382;SDS011;8809;51.892;8.384;2022-12-29T07:17:51;1.17;;;0.70;;
17382;SDS011;8809;51.892;8.384;2022-12-29T07:20:18;2.15;;;1.08;;
17382;SDS011;8809;51.892;8.384;2022-12-29T07:22:45;0.70;;;0.70;;
17382;SDS011;8809;51.892;8.384;2022-12-29T07:25:13;1.08;;;0.90;;
17382;SDS011;8809;51.892;8.384;2022-12-29T07:27:40;2.53;;;1.13;;
17382;SDS011;8809;51.892;8.384;2022-12-29T07:30:09;3.67;;;1.00;;
17382;SDS011;8809;51.892;8.384;2022-12-29T07:32:37;3.33;;;1.08;;
17382;SDS011;8809;51.892;8.384;2022-12-29T07:35:04;2.22;;;0.98;;
17382;SDS011;8809;51.892;8.384;2022-12-29T07:37:33;2.00;;;1.00;;
17382;SDS011;8809;51.892;8.384;2022-12-29T07:40:00;2.47;;;1.00;;
17382;SDS011;8809;51.892;8.384;2022-12-29T07:42:28;1.02;;;0.80;;
17382;SDS011;8809;51.892;8.384;2022-12-29T07:44:55;1.20;;;0.90;;
17382;SDS011;8809;51.892;8.384;2022-12-29T07:47:24;2.38;;;1.00;;
17382;SDS011;8809;51.892;8.384;2022-12-29T07:49:51;2.92;;;1.00;;
17382;SDS011;8809;51.892;8.384;2022-12-29T07:52:18;1.63;;;0.98;;
17382;SDS011;8809;51.892;8.384;2022-12-29T07:54:45;2.75;;;1.13;;
17382;SDS011;8809;51.892;8.384;2022-12-29T07:57:12;2.25;;;1.15;;
17382;SDS011;8809;51.892;8.384;2022-12-29T07:59:39;1.92;;;1.10;;
17382;SDS011;8809;51.892;8.384;2022-12-29T08:02:08;3.47;;;1.40;;
17382;SDS011;8809;51.892;8.384;2022-12-29T08:04:37;3.80;;;1.00;;
17382;SDS011;8809;51.892;8.384;2022-12-29T08:07:06;2.08;;;1.00;;
17382;SDS011;8809;51.892;8.384;2022-12-29T08:09:34;3.10;;;1.00;;
17382;SDS011;8809;51.892;8.384;2022-12-29T08:12:01;2.17;;;1.40;;
17382;SDS011;8809;51.892;8.384;2022-12-29T08:14:29;2.05;;;0.95;;
17382;SDS011;8809;51.892;8.384;2022-12-29T08:16:56;1.42;;;1.20;;
17382;SDS011;8809;51.892;8.384;2022-12-29T08:19:22;1.88;;;0.98;;
17382;SDS011;8809;51.892;8.384;2022-12-29T08:21:51;3.17;;;1.10;;
17382;SDS011;8809;51.892;8.384;2022-12-29T08:24:19;3.60;;;1.20;;
17382;SDS011;8809;51.892;8.384;2022-12-29T08:26:46;2.88;;;1.10;;
17382;SDS011;8809;51.892;8.384;2022-12-29T08:29:13;2.58;;;1.00;;
17382;SDS011;8809;51.892;8.384;2022-12-29T08:31:40;2.45;;;1.20;;
17382;SDS011;8809;51.892;8.384;2022-12-29T08:34:07;1.92;;;1.15;;
17382;SDS011;8809;51.892;8.384;2022-12-29T08:36:34;1.77;;;1.20;;
17382;SDS011;8809;51.892;8.384;2022-12-29T08:39:02;2.05;;;1.08;;
17382;SDS011;8809;51.892;8.384;2022-12-29T08:41:30;1.80;;;0.95;;
17382;SDS011;8809;51.892;8.384;2022-12-29T08:43:57;2.38;;;1.20;;
17382;SDS011;8809;51.892;8.384;2022-12-29T08:46:24;2.78;;;1.30;;
17382;SDS011;8809;51.892;8.384;2022-12-29T08:48:51;3.28;;;1.20;;
17382;SDS011;8809;51.892;8.384;2022-12-29T08:51:19;3.10;;;1.20;;
17382;SDS011;8809;51.892;8.384;2022-12-29T08:53:46;2.85;;;1.30;;
17382;SDS011;8809;51.892;8.384;2022-12-29T08:56:14;1.58;;;0.98;;
17382;SDS011;8809;51.892;8.384;2022-12-29T08:58:41;2.65;;;1.55;;
17382;SDS011;8809;51.892;8.384;2022-12-29T09:01:09;4.80;;;1.45;;
17382;SDS011;8809;51.892;8.384;2022-12-29T09:03:36;1.95;;;1.60;;
17382;SDS011;8809;51.892;8.384;2022-12-29T09:06:04;3.00;;;1.52;;
17382;SDS011;8809;51.892;8.384;2022-12-29T09:08:31;4.07;;;1.80;;
17382;SDS011;8809;51.892;8.384;2022-12-29T09:11:05;4.88;;;1.80;;
17382;SDS011;8809;51.892;8.384;2022-12-29T09:13:38;3.22;;;1.80;;
17382;SDS011;8809;51.892;8.384;2022-12-29T09:16:05;3.38;;;2.13;;
17382;SDS011;8809;51.892;8.384;2022-12-29T09:18:32;3.30;;;1.80;;
17382;SDS011;8809;51.892;8.384;2022-12-29T09:21:00;3.13;;;1.50;;
17382;SDS011;8809;51.892;8.384;2022-12-29T09:23:30;3.75;;;1.23;;
17382;SDS011;8809;51.892;8.384;2022-12-29T09:25:57;4.93;;;1.73;;
17382;SDS011;8809;51.892;8.384;2022-12-29T09:28:25;4.32;;;1.40;;
17382;SDS011;8809;51.892;8.384;2022-12-29T09:30:56;4.63;;;1.10;;
17382;SDS011;8809;51.892;8.384;2022-12-29T09:33:24;3.42;;;1.80;;
17382;SDS011;8809;51.892;8.384;2022-12-29T09:35:52;3.30;;;1.30;;
17382;SDS011;8809;51.892;8.384;2022-12-29T09:38:20;3.03;;;1.15;;
17382;SDS011;8809;51.892;8.384;2022-12-29T09:40:49;6.20;;;1.10;;
17382;SDS011;8809;51.892;8.384;2022-12-29T09:43:22;3.92;;;1.30;;
17382;SDS011;8809;51.892;8.384;2022-12-29T09:46:02;4.18;;;0.90;;
17382;SDS011;8809;51.892;8.384;2022-12-29T09:48:39;4.05;;;1.23;;
17382;SDS011;8809;51.892;8.384;2022-12-29T09:51:08;2.63;;;1.05;;
17382;SDS011;8809;51.892;8.384;2022-12-29T09:53:38;2.78;;;1.10;;
17382;SDS011;8809;51.892;8.384;2022-12-29T09:56:11;4.38;;;1.20;;
17382;SDS011;8809;51.892;8.384;2022-12-29T09:58:43;5.53;;;1.13;;
17382;SDS011;8809;51.892;8.384;2022-12-29T10:01:26;5.25;;;1.55;;
17382;SDS011;8809;51.892;8.384;2022-12-29T10:03:58;3.40;;;1.33;;
17382;SDS011;8809;51.892;8.384;2022-12-29T10:06:32;3.17;;;1.23;;
17382;SDS011;8809;51.892;8.384;2022-12-29T10:09:02;4.43;;;1.48;;
17382;SDS011;8809;51.892;8.384;2022-12-29T10:11:46;4.05;;;1.40;;
17382;SDS011;8809;51.892;8.384;2022-12-29T10:14:28;5.60;;;1.35;;
17382;SDS011;8809;51.892;8.384;2022-12-29T10:17:15;5.97;;;1.50;;
17382;SDS011;8809;51.892;8.384;2022-12-29T10:19:54;7.15;;;1.92;;
17382;SDS011;8809;51.892;8.384;2022-12-29T10:22:38;6.50;;;1.90;;
17382;SDS011;8809;51.892;8.384;2022-12-29T10:25:14;3.35;;;1.60;;
17382;SDS011;8809;51.892;8.384;2022-12-29T10:27:44;5.30;;;1.35;;
17382;SDS011;8809;51.892;8.384;2022-12-29T10:30:14;4.65;;;1.00;;
17382;SDS011;8809;51.892;8.384;2022-12-29T10:32:48;5.38;;;1.33;;
17382;SDS011;8809;51.892;8.384;2022-12-29T10:35:19;2.97;;;1.40;;
17382;SDS011;8809;51.892;8.384;2022-12-29T10:37:49;6.03;;;1.45;;
17382;SDS011;8809;51.892;8.384;2022-12-29T10:40:24;7.43;;;1.65;;
17382;SDS011;8809;51.892;8.384;2022-12-29T10:42:55;3.85;;;1.08;;
17382;SDS011;8809;51.892;8.384;2022-12-29T10:45:25;7.43;;;1.67;;
17382;SDS011;8809;51.892;8.384;2022-12-29T10:47:57;4.60;;;1.25;;
17382;SDS011;8809;51.892;8.384;2022-12-29T10:50:27;4.93;;;1.40;;
17382;SDS011;8809;51.892;8.384;2022-12-29T10:52:55;3.92;;;1.30;;
17382;SDS011;8809;51.892;8.384;2022-12-29T10:55:27;3.20;;;1.25;;
17382;SDS011;8809;51.892;8.384;2022-12-29T10:57:59;4.40;;;1.65;;
17382;SDS011;8809;51.892;8.384;2022-12-29T11:00:30;4.80;;;1.23;;
17382;SDS011;8809;51.892;8.384;2022-12-29T11:03:10;3.33;;;1.00;;
17382;SDS011;8809;51.892;8.384;2022-12-29T11:05:49;4.78;;;1.23;;
17382;SDS011;8809;51.892;8.384;2022-12-29T11:08:24;5.07;;;1.65;;
17382;SDS011;8809;51.892;8.384;2022-12-29T11:10:58;4.50;;;1.25;;
17382;SDS011;8809;51.892;8.384;2022-12-29T11:13:27;4.32;;;1.50;;
17382;SDS011;8809;51.892;8.384;2022-12-29T11:15:57;2.97;;;0.90;;
17382;SDS011;8809;51.892;8.384;2022-12-29T11:18:28;4.13;;;1.10;;
17382;SDS011;8809;51.892;8.384;2022-12-29T11:21:00;4.82;;;1.83;;
17382;SDS011;8809;51.892;8.384;2022-12-29T11:23:30;2.72;;;1.10;;
17382;SDS011;8809;51.892;8.384;2022-12-29T11:26:12;4.70;;;1.33;;
17382;SDS011;8809;51.892;8.384;2022-12-29T11:28:42;3.33;;;1.40;;
17382;SDS011;8809;51.892;8.384;2022-12-29T11:31:13;2.47;;;1.17;;
17382;SDS011;8809;51.892;8.384;2022-12-29T11:33:44;4.63;;;1.38;;
17382;SDS011;8809;51.892;8.384;2022-12-29T11:36:12;6.20;;;2.30;;
17382;SDS011;8809;51.892;8.384;2022-12-29T11:38:42;3.17;;;1.20;;
17382;SDS011;8809;51.892;8.384;2022-12-29T11:41:18;2.88;;;1.30;;
17382;SDS011;8809;51.892;8.384;2022-12-29T11:43:48;6.15;;;1.10;;
17382;SDS011;8809;51.892;8.384;2022-12-29T11:46:17;3.67;;;1.40;;
17382;SDS011;8809;51.892;8.384;2022-12-29T11:48:47;2.80;;;1.30;;
17382;SDS011;8809;51.892;8.384;2022-12-29T11:51:21;4.10;;;1.20;;
17382;SDS011;8809;51.892;8.384;2022-12-29T11:53:51;5.72;;;1.38;;
17382;SDS011;8809;51.892;8.384;2022-12-29T11:56:23;3.08;;;1.30;;
17382;SDS011;8809;51.892;8.384;2022-12-29T12:01:51;5.28;;;1.73;;
17382;SDS011;8809;51.892;8.384;2022-12-29T12:04:20;4.78;;;1.50;;
17382;SDS011;8809;51.892;8.384;2022-12-29T12:06:54;5.70;;;1.40;;
17382;SDS011;8809;51.892;8.384;2022-12-29T12:09:27;5.50;;;1.40;;
17382;SDS011;8809;51.892;8.384;2022-12-29T12:12:01;4.07;;;1.33;;
17382;SDS011;8809;51.892;8.384;2022-12-29T12:14:31;4.43;;;1.30;;
17382;SDS011;8809;51.892;8.384;2022-12-29T12:17:03;2.90;;;1.17;;
17382;SDS011;8809;51.892;8.384;2022-12-29T12:19:40;5.15;;;1.38;;
17382;SDS011;8809;51.892;8.384;2022-12-29T12:22:13;5.88;;;1.30;;
17382;SDS011;8809;51.892;8.384;2022-12-29T12:24:47;3.80;;;1.20;;
17382;SDS011;8809;51.892;8.384;2022-12-29T12:27:21;2.38;;;1.10;;
17382;SDS011;8809;51.892;8.384;2022-12-29T12:29:56;5.25;;;1.65;;
17382;SDS011;8809;51.892;8.384;2022-12-29T12:32:27;5.55;;;1.50;;
17382;SDS011;8809;51.892;8.384;2022-12-29T12:35:12;4.45;;;1.20;;
17382;SDS011;8809;51.892;8.384;2022-12-29T12:37:47;6.28;;;1.30;;
17382;SDS011;8809;51.892;8.384;2022-12-29T12:40:31;4.30;;;1.10;;
17382;SDS011;8809;51.892;8.384;2022-12-29T12:43:27;7.55;;;1.40;;
17382;SDS011;8809;51.892;8.384;2022-12-29T12:46:10;3.13;;;1.20;;
17382;SDS011;8809;51.892;8.384;2022-12-29T12:48:53;4.10;;;1.48;;
17382;SDS011;8809;51.892;8.384;2022-12-29T12:51:36;5.97;;;1.75;;
17382;SDS011;8809;51.892;8.384;2022-12-29T12:54:18;5.32;;;1.40;;
17382;SDS011;8809;51.892;8.384;2022-12-29T12:57:02;4.47;;;1.45;;
17382;SDS011;8809;51.892;8.384;2022-12-29T12:59:43;5.63;;;1.50;;
17382;SDS011;8809;51.892;8.384;2022-12-29T13:02:26;3.22;;;1.30;;
17382;SDS011;8809;51.892;8.384;2022-12-29T13:05:04;5.50;;;1.23;;
17382;SDS011;8809;51.892;8.384;2022-12-29T13:07:46;4.95;;;1.35;;
17382;SDS011;8809;51.892;8.384;2022-12-29T13:10:28;6.43;;;1.30;;
17382;SDS011;8809;51.892;8.384;2022-12-29T13:13:12;5.13;;;1.40;;
17382;SDS011;8809;51.892;8.384;2022-12-29T13:15:55;4.95;;;1.38;;
17382;SDS011;8809;51.892;8.384;2022-12-29T13:18:31;3.97;;;1.45;;
17382;SDS011;8809;51.892;8.384;2022-12-29T13:21:12;8.23;;;1.60;;
17382;SDS011;8809;51.892;8.384;2022-12-29T13:23:55;5.78;;;1.58;;
17382;SDS011;8809;51.892;8.384;2022-12-29T13:26:28;4.57;;;1.30;;
17382;SDS011;8809;51.892;8.384;2022-12-29T13:28:59;5.22;;;1.55;;
17382;SDS011;8809;51.892;8.384;2022-12-29T13:31:38;4.82;;;1.75;;
17382;SDS011;8809;51.892;8.384;2022-12-29T13:34:14;5.32;;;1.40;;
17382;SDS011;8809;51.892;8.384;2022-12-29T13:36:51;3.55;;;1.30;;
17382;SDS011;8809;51.892;8.384;2022-12-29T13:39:25;4.63;;;1.60;;
17382;SDS011;8809;51.892;8.384;2022-12-29T13:41:57;8.48;;;1.55;;
17382;SDS011;8809;51.892;8.384;2022-12-29T13:44:27;5.18;;;1.33;;
17382;SDS011;8809;51.892;8.384;2022-12-29T13:46:57;5.78;;;1.73;;
17382;SDS011;8809;51.892;8.384;2022-12-29T13:49:31;3.80;;;1.52;;
17382;SDS011;8809;51.892;8.384;2022-12-29T13:52:03;5.63;;;1.63;;
17382;SDS011;8809;51.892;8.384;2022-12-29T13:54:43;7.53;;;2.33;;
17382;SDS011;8809;51.892;8.384;2022-12-29T13:57:23;4.22;;;2.00;;
17382;SDS011;8809;51.892;8.384;2022-12-29T13:59:59;3.22;;;1.33;;
17382;SDS011;8809;51.892;8.384;2022-12-29T14:02:31;4.88;;;1.58;;
17382;SDS011;8809;51.892;8.384;2022-12-29T14:05:26;4.07;;;1.42;;
17382;SDS011;8809;51.892;8.384;2022-12-29T14:07:56;4.60;;;1.45;;
17382;SDS011;8809;51.892;8.384;2022-12-29T14:10:30;4.07;;;1.48;;
17382;SDS011;8809;51.892;8.384;2022-12-29T14:13:02;6.88;;;2.10;;
17382;SDS011;8809;51.892;8.384;2022-12-29T14:15:31;2.70;;;1.50;;
17382;SDS011;8809;51.892;8.384;2022-12-29T14:18:01;3.15;;;1.63;;
17382;SDS011;8809;51.892;8.384;2022-12-29T14:20:31;5.65;;;1.77;;
17382;SDS011;8809;51.892;8.384;2022-12-29T14:23:00;4.38;;;1.50;;
17382;SDS011;8809;51.892;8.384;2022-12-29T14:28:38;6.25;;;1.58;;
17382;SDS011;8809;51.892;8.384;2022-12-29T14:31:32;5.50;;;2.10;;
17382;SDS011;8809;51.892;8.384;2022-12-29T14:34:27;4.50;;;2.00;;
17382;SDS011;8809;51.892;8.384;2022-12-29T14:36:56;8.68;;;1.83;;
17382;SDS011;8809;51.892;8.384;2022-12-29T14:39:30;3.22;;;1.40;;
17382;SDS011;8809;51.892;8.384;2022-12-29T14:42:03;5.07;;;1.80;;
17382;SDS011;8809;51.892;8.384;2022-12-29T14:44:45;3.03;;;1.55;;
17382;SDS011;8809;51.892;8.384;2022-12-29T14:47:18;3.28;;;1.88;;
17382;SDS011;8809;51.892;8.384;2022-12-29T14:49:48;10.13;;;1.55;;
17382;SDS011;8809;51.892;8.384;2022-12-29T14:52:17;5.80;;;1.50;;
17382;SDS011;8809;51.892;8.384;2022-12-29T14:54:48;6.65;;;1.75;;
17382;SDS011;8809;51.892;8.384;2022-12-29T14:57:29;5.35;;;1.60;;
17382;SDS011;8809;51.892;8.384;2022-12-29T15:02:45;7.93;;;2.60;;
17382;SDS011;8809;51.892;8.384;2022-12-29T15:05:29;4.32;;;1.77;;
17382;SDS011;8809;51.892;8.384;2022-12-29T15:07:59;4.95;;;1.70;;
17382;SDS011;8809;51.892;8.384;2022-12-29T15:10:31;5.50;;;1.40;;
17382;SDS011;8809;51.892;8.384;2022-12-29T15:13:05;9.30;;;2.15;;
17382;SDS011;8809;51.892;8.384;2022-12-29T15:15:41;9.82;;;3.45;;
17382;SDS011;8809;51.892;8.384;2022-12-29T15:18:18;7.72;;;2.65;;
17382;SDS011;8809;51.892;8.384;2022-12-29T15:20:50;3.92;;;1.95;;
17382;SDS011;8809;51.892;8.384;2022-12-29T15:23:19;7.35;;;1.92;;
17382;SDS011;8809;51.892;8.384;2022-12-29T15:25:47;5.78;;;1.90;;
17382;SDS011;8809;51.892;8.384;2022-12-29T15:28:21;5.93;;;1.95;;
17382;SDS011;8809;51.892;8.384;2022-12-29T15:30:52;4.03;;;1.92;;
17382;SDS011;8809;51.892;8.384;2022-12-29T15:33:21;7.03;;;1.75;;
17382;SDS011;8809;51.892;8.384;2022-12-29T15:35:49;6.30;;;1.60;;
17382;SDS011;8809;51.892;8.384;2022-12-29T15:38:20;4.43;;;1.90;;
17382;SDS011;8809;51.892;8.384;2022-12-29T15:40:51;5.07;;;1.75;;
17382;SDS011;8809;51.892;8.384;2022-12-29T15:43:25;8.02;;;1.90;;
17382;SDS011;8809;51.892;8.384;2022-12-29T15:46:03;8.02;;;1.80;;
17382;SDS011;8809;51.892;8.384;2022-12-29T15:48:30;4.22;;;1.65;;